createdAt,value
2023-03-07T00:02:33.349Z,1.50
2023-03-07T00:05:34.894Z,1.48
2023-03-07T00:08:37.706Z,1.13
2023-03-07T00:11:39.233Z,1.35
2023-03-07T00:14:40.798Z,1.30
2023-03-07T00:17:42.504Z,1.40
2023-03-07T00:20:44.387Z,1.20
2023-03-07T00:23:46.696Z,1.52
2023-03-07T00:26:48.238Z,1.35
2023-03-07T00:29:50.271Z,1.30
2023-03-07T00:32:52.114Z,1.40
2023-03-07T00:36:02.679Z,1.45
2023-03-07T22:22:19.901Z,1.00
2023-03-07T22:25:21.436Z,1.00
2023-03-07T22:28:23.003Z,1.00
2023-03-07T22:31:25.645Z,0.90
2023-03-07T22:34:27.202Z,0.90
2023-03-07T22:37:28.677Z,0.82
2023-03-07T22:40:30.218Z,0.70
2023-03-07T22:43:33.057Z,0.80
2023-03-07T22:46:34.534Z,0.80
2023-03-07T22:49:36.030Z,0.65
2023-03-07T22:52:37.482Z,0.65
2023-03-07T22:55:43.183Z,0.77
2023-03-07T22:58:45.036Z,0.60
2023-03-07T23:01:46.626Z,0.70
2023-03-07T23:04:52.346Z,0.60
2023-03-07T23:07:54.050Z,0.82
2023-03-07T23:11:07.419Z,0.98
2023-03-07T23:14:09.506Z,1.10
2023-03-07T23:17:10.977Z,0.95
2023-03-07T23:20:13.206Z,0.90
2023-03-07T23:23:14.687Z,0.68
2023-03-07T23:26:19.763Z,0.70
2023-03-07T23:29:21.248Z,0.88
2023-03-07T23:32:22.819Z,0.80
2023-03-07T23:35:24.606Z,0.70
2023-03-07T23:38:26.072Z,0.80
2023-03-07T23:41:28.039Z,0.75
2023-03-07T23:44:29.735Z,0.80
2023-03-07T23:47:31.182Z,0.95
2023-03-07T23:50:32.882Z,0.70
2023-03-07T23:53:34.438Z,0.80
2023-03-07T23:56:36.010Z,0.68
2023-03-07T23:59:37.475Z,0.68
